createdAt,value
2019-04-27T00:01:48.466Z,27.83
2019-04-27T00:04:23.572Z,35.03
2019-04-27T00:06:58.497Z,27.20
2019-04-27T00:09:33.970Z,27.83
2019-04-27T00:12:10.041Z,26.07
2019-04-27T00:14:41.693Z,27.80
2019-04-27T00:17:40.405Z,30.10
2019-04-27T00:22:35.224Z,30.30
2019-04-27T00:25:06.757Z,26.30
2019-04-27T00:27:38.360Z,25.47
2019-04-27T00:30:10.470Z,28.17
2019-04-27T00:32:43.345Z,25.27
2019-04-27T00:35:16.889Z,26.40
2019-04-27T00:38:06.597Z,27.90
2019-04-27T00:40:40.136Z,29.13
2019-04-27T00:43:13.950Z,31.77
2019-04-27T00:45:45.728Z,26.23
2019-04-27T00:48:17.700Z,29.90
2019-04-27T00:50:49.627Z,35.97
2019-04-27T00:53:21.479Z,29.13
2019-04-27T00:56:11.598Z,31.30
2019-04-27T00:58:48.634Z,28.27
2019-04-27T01:01:23.379Z,29.53
2019-04-27T01:04:04.418Z,31.33
2019-04-27T01:09:10.956Z,25.00
2019-04-27T01:11:44.071Z,24.87
2019-04-27T01:14:15.828Z,28.87
2019-04-27T01:16:49.263Z,31.67
2019-04-27T01:19:22.096Z,29.43
2019-04-27T01:21:53.680Z,26.47
2019-04-27T01:24:25.555Z,26.67
2019-04-27T01:27:00.002Z,25.50
2019-04-27T01:29:36.683Z,30.80
2019-04-27T01:32:10.280Z,30.10
2019-04-27T01:34:41.809Z,32.40
2019-04-27T01:37:13.977Z,24.27
2019-04-27T01:39:45.412Z,27.00
2019-04-27T01:42:17.195Z,25.10
2019-04-27T01:44:50.795Z,26.57
2019-04-27T01:47:22.363Z,28.53
2019-04-27T01:49:55.713Z,24.00
2019-04-27T01:52:27.396Z,31.03
2019-04-27T01:54:59.396Z,31.83
2019-04-27T01:57:30.872Z,25.40
2019-04-27T02:00:05.554Z,30.43
2019-04-27T02:02:39.777Z,28.60
2019-04-27T02:05:30.424Z,25.73
2019-04-27T02:08:02.502Z,27.13
2019-04-27T02:10:34.000Z,30.80
2019-04-27T02:13:05.831Z,24.30
2019-04-27T02:15:39.453Z,31.50
2019-04-27T02:18:11.307Z,25.83
2019-04-27T02:20:44.449Z,25.37
2019-04-27T02:23:16.440Z,25.07
2019-04-27T02:25:49.696Z,26.07
2019-04-27T02:28:32.028Z,25.20
2019-04-27T02:31:09.818Z,28.80
2019-04-27T02:33:43.785Z,27.77
2019-04-27T02:36:15.448Z,31.40
2019-04-27T02:38:49.064Z,25.40
2019-04-27T02:41:20.710Z,22.20
2019-04-27T02:43:54.269Z,28.60
2019-04-27T02:46:25.966Z,29.57
2019-04-27T02:49:03.173Z,28.30
2019-04-27T02:51:42.872Z,23.90
2019-04-27T02:54:15.019Z,24.57
2019-04-27T02:56:46.665Z,27.87
2019-04-27T02:59:19.868Z,25.67
2019-04-27T03:01:53.702Z,27.00
2019-04-27T03:04:25.471Z,29.03
2019-04-27T03:06:57.441Z,26.50
2019-04-27T03:09:30.577Z,26.97
2019-04-27T03:12:04.116Z,25.43
2019-04-27T03:14:53.591Z,24.80
2019-04-27T03:17:27.093Z,24.57
2019-04-27T03:20:15.605Z,26.87
2019-04-27T03:22:49.945Z,35.83
2019-04-27T03:25:23.261Z,26.50
2019-04-27T03:27:56.703Z,28.93
2019-04-27T03:30:31.666Z,27.53
2019-04-27T03:33:03.687Z,29.37
2019-04-27T03:35:36.797Z,29.10
2019-04-27T03:38:10.416Z,30.10
2019-04-27T03:40:42.562Z,27.37
2019-04-27T03:43:19.967Z,29.20
2019-04-27T03:45:52.630Z,27.10
2019-04-27T03:48:24.722Z,32.73
2019-04-27T03:51:09.704Z,26.53
2019-04-27T03:53:49.730Z,25.27
2019-04-27T03:59:10.175Z,29.50
2019-04-27T04:01:41.815Z,23.40
2019-04-27T04:04:13.872Z,30.03
2019-04-27T04:06:45.124Z,31.80
2019-04-27T04:09:16.683Z,29.13
2019-04-27T04:11:53.193Z,33.27
2019-04-27T04:14:25.284Z,36.50
2019-04-27T04:17:02.231Z,29.10
2019-04-27T04:19:47.720Z,27.23
2019-04-27T04:22:05.673Z,34.03
2019-04-27T04:24:36.862Z,29.27
2019-04-27T04:27:09.922Z,30.50
2019-04-27T04:29:42.141Z,31.10
2019-04-27T04:32:13.702Z,29.47
2019-04-27T04:34:45.134Z,40.90
2019-04-27T04:37:16.734Z,28.67
2019-04-27T04:39:53.129Z,39.90
2019-04-27T04:42:25.893Z,39.27
2019-04-27T04:45:02.298Z,35.37
2019-04-27T04:47:36.115Z,36.20
2019-04-27T04:50:14.051Z,33.10
2019-04-27T04:52:42.478Z,29.77
2019-04-27T04:55:13.979Z,27.47
2019-04-27T04:57:45.561Z,31.13
2019-04-27T05:00:19.758Z,24.97
2019-04-27T05:02:51.139Z,29.77
2019-04-27T05:05:23.236Z,27.50
2019-04-27T05:07:54.701Z,27.10
2019-04-27T05:10:26.225Z,22.50
2019-04-27T05:12:59.072Z,26.60
2019-04-27T05:15:31.005Z,32.90
2019-04-27T05:18:02.549Z,17.37
2019-04-27T05:20:39.682Z,33.20
2019-04-27T05:23:11.716Z,27.87
2019-04-27T05:25:43.304Z,29.23
2019-04-27T05:28:14.770Z,26.63
2019-04-27T05:30:46.512Z,30.97
2019-04-27T05:33:18.741Z,25.97
2019-04-27T05:35:51.643Z,33.87
2019-04-27T05:38:23.340Z,24.70
2019-04-27T05:40:54.932Z,21.73
2019-04-27T05:43:38.847Z,20.47
2019-04-27T05:46:22.096Z,20.63
2019-04-27T05:48:53.584Z,20.00
2019-04-27T05:51:25.180Z,23.47
2019-04-27T05:53:56.690Z,21.07
2019-04-27T05:56:28.915Z,21.00
2019-04-27T05:59:00.825Z,20.23
2019-04-27T06:01:32.425Z,23.80
2019-04-27T06:04:03.904Z,21.93
2019-04-27T06:06:35.409Z,23.47
2019-04-27T06:09:07.108Z,22.60
2019-04-27T06:11:39.969Z,16.23
2019-04-27T06:14:11.790Z,22.73
2019-04-27T06:16:43.872Z,20.07
2019-04-27T06:19:15.224Z,18.50
2019-04-27T06:21:46.835Z,21.10
2019-04-27T06:24:18.677Z,19.90
2019-04-27T06:26:50.182Z,16.13
2019-04-27T06:29:21.730Z,17.77
2019-04-27T06:31:53.951Z,19.27
2019-04-27T06:34:25.675Z,22.47
2019-04-27T06:36:57.400Z,18.13
2019-04-27T06:39:29.930Z,18.63
2019-04-27T06:42:01.664Z,20.27
2019-04-27T06:44:33.023Z,27.20
2019-04-27T06:47:05.629Z,24.20
2019-04-27T06:49:37.160Z,23.03
2019-04-27T06:52:08.752Z,25.70
2019-04-27T06:54:40.315Z,28.17
2019-04-27T06:57:11.609Z,23.47
2019-04-27T06:59:43.192Z,30.87
2019-04-27T07:02:14.984Z,31.23
2019-04-27T07:04:46.626Z,24.97
2019-04-27T07:07:19.525Z,28.03
2019-04-27T07:09:52.395Z,24.63
2019-04-27T07:12:24.273Z,31.10
2019-04-27T07:14:55.949Z,29.00
2019-04-27T07:17:29.091Z,26.67
2019-04-27T07:20:00.483Z,31.53
2019-04-27T07:22:31.985Z,40.40
2019-04-27T07:25:04.978Z,27.50
2019-04-27T07:27:36.257Z,25.83
2019-04-27T07:30:11.806Z,29.80
2019-04-27T07:32:41.257Z,25.83
2019-04-27T07:35:12.455Z,30.97
2019-04-27T07:37:43.953Z,25.80
2019-04-27T07:40:15.293Z,31.90
2019-04-27T07:42:49.993Z,25.57
2019-04-27T07:45:31.932Z,25.17
2019-04-27T07:48:03.160Z,28.90
2019-04-27T07:50:34.388Z,30.93
2019-04-27T07:53:05.587Z,33.83
2019-04-27T07:55:36.804Z,32.03
2019-04-27T07:58:08.931Z,24.63
2019-04-27T08:00:40.564Z,30.47
2019-04-27T08:03:11.860Z,27.60
2019-04-27T08:05:43.584Z,36.97
2019-04-27T08:08:15.308Z,30.73
2019-04-27T08:10:48.457Z,27.47
2019-04-27T08:13:19.904Z,30.70
2019-04-27T08:15:51.104Z,28.17
2019-04-27T08:18:22.381Z,31.03
2019-04-27T08:20:56.978Z,32.03
2019-04-27T08:23:29.467Z,27.87
2019-04-27T08:26:02.430Z,30.27
2019-04-27T08:28:36.028Z,30.00
2019-04-27T08:31:18.958Z,27.73
2019-04-27T08:33:50.287Z,34.77
2019-04-27T08:36:21.841Z,31.37
2019-04-27T08:38:53.179Z,41.70
2019-04-27T08:41:24.782Z,32.30
2019-04-27T08:43:56.169Z,32.90
2019-04-27T08:46:28.621Z,33.87
2019-04-27T08:49:00.631Z,34.70
2019-04-27T08:51:32.126Z,30.57
2019-04-27T08:54:04.464Z,29.13
2019-04-27T08:56:36.030Z,31.70
2019-04-27T08:59:09.387Z,33.77
2019-04-27T09:01:41.092Z,26.17
2019-04-27T09:04:12.494Z,27.57
2019-04-27T09:06:45.722Z,31.23
2019-04-27T09:09:24.785Z,34.20
2019-04-27T09:12:04.382Z,46.67
2019-04-27T09:14:47.153Z,29.87
2019-04-27T09:17:23.168Z,30.20
2019-04-27T09:19:56.550Z,25.40
2019-04-27T09:22:28.905Z,37.03
2019-04-27T09:25:00.946Z,31.60
2019-04-27T09:27:32.137Z,33.97
2019-04-27T09:30:06.036Z,33.73
2019-04-27T09:32:38.445Z,32.70
2019-04-27T09:35:12.083Z,31.13
2019-04-27T09:37:45.768Z,27.23
2019-04-27T09:40:17.426Z,29.80
2019-04-27T09:42:49.500Z,25.23
2019-04-27T09:45:21.477Z,30.33
2019-04-27T09:47:52.764Z,33.67
2019-04-27T09:50:28.009Z,28.57
2019-04-27T09:52:57.632Z,28.97
2019-04-27T09:55:30.345Z,30.40
2019-04-27T09:58:01.955Z,27.50
2019-04-27T10:00:33.598Z,27.73
2019-04-27T10:03:06.607Z,32.23
2019-04-27T10:05:38.513Z,25.27
2019-04-27T10:08:09.982Z,29.70
2019-04-27T10:10:41.371Z,34.37
2019-04-27T10:27:58.509Z,23.10
2019-04-27T10:30:33.151Z,23.03
2019-04-27T10:33:08.212Z,23.13
2019-04-27T10:35:39.436Z,22.77
2019-04-27T10:38:10.748Z,24.50
2019-04-27T10:40:41.954Z,33.23
2019-04-27T10:43:13.164Z,22.63
2019-04-27T10:53:16.822Z,31.50
2019-04-27T10:55:48.421Z,22.90
2019-04-27T10:58:19.889Z,26.20
2019-04-27T11:00:53.221Z,24.40
2019-04-27T11:03:42.791Z,20.40
2019-04-27T11:06:28.054Z,25.83
2019-04-27T11:08:59.371Z,19.67
2019-04-27T11:11:31.351Z,23.87
2019-04-27T11:14:02.971Z,22.50
2019-04-27T11:16:35.953Z,26.80
2019-04-27T11:19:08.837Z,23.73
2019-04-27T11:21:40.171Z,25.10
2019-04-27T11:24:11.930Z,20.43
2019-04-27T11:26:43.670Z,22.97
2019-04-27T11:29:15.177Z,27.27
2019-04-27T11:31:47.310Z,21.70
2019-04-27T11:34:19.962Z,30.70
2019-04-27T11:37:03.357Z,24.40
2019-04-27T11:39:35.950Z,20.40
2019-04-27T11:42:07.421Z,22.27
2019-04-27T11:44:38.616Z,26.07
2019-04-27T11:47:09.883Z,31.17
2019-04-27T11:49:41.072Z,23.37
2019-04-27T11:52:12.290Z,24.73
2019-04-27T11:54:45.640Z,20.40
2019-04-27T11:57:16.846Z,19.53
2019-04-27T11:59:48.245Z,19.50
2019-04-27T12:02:19.484Z,21.67
2019-04-27T12:04:50.710Z,23.37
2019-04-27T12:07:22.131Z,26.20
2019-04-27T12:09:53.333Z,20.87
2019-04-27T12:12:26.116Z,19.73
2019-04-27T12:14:57.592Z,19.77
2019-04-27T12:17:29.282Z,19.93
2019-04-27T12:20:00.601Z,20.43
2019-04-27T12:22:31.891Z,21.27
2019-04-27T12:25:06.529Z,21.83
2019-04-27T12:27:46.077Z,22.00
2019-04-27T12:30:19.591Z,29.43
2019-04-27T12:32:51.064Z,21.60
2019-04-27T12:35:22.347Z,23.83
2019-04-27T12:37:53.590Z,22.90
2019-04-27T12:40:26.682Z,31.97
2019-04-27T12:42:58.114Z,19.33
2019-04-27T12:45:29.405Z,19.83
2019-04-27T12:48:00.746Z,19.87
2019-04-27T12:50:32.424Z,17.27
2019-04-27T12:53:08.567Z,20.20
2019-04-27T12:55:46.391Z,28.73
2019-04-27T12:58:26.521Z,20.37
2019-04-27T13:01:02.800Z,23.40
2019-04-27T13:03:36.257Z,24.77
2019-04-27T13:06:07.385Z,21.27
2019-04-27T13:08:38.692Z,47.40
2019-04-27T13:11:10.036Z,26.50
2019-04-27T13:13:41.252Z,19.83
2019-04-27T13:16:12.554Z,28.10
2019-04-27T13:18:44.028Z,19.73
2019-04-27T13:21:15.759Z,23.07
2019-04-27T13:24:00.843Z,25.00
2019-04-27T13:26:21.663Z,21.20
2019-04-27T13:28:52.994Z,22.37
2019-04-27T13:31:25.771Z,27.10
2019-04-27T13:33:57.161Z,22.27
2019-04-27T13:36:28.389Z,25.97
2019-04-27T13:38:59.690Z,26.13
2019-04-27T13:41:32.938Z,21.13
2019-04-27T13:44:04.048Z,26.30
2019-04-27T13:46:53.516Z,24.90
2019-04-27T13:49:29.712Z,26.07
2019-04-27T13:52:06.013Z,20.73
2019-04-27T13:54:37.189Z,20.73
2019-04-27T13:57:08.374Z,34.83
2019-04-27T13:59:39.607Z,27.60
2019-04-27T14:02:10.996Z,28.43
2019-04-27T14:04:42.288Z,22.17
2019-04-27T14:07:13.590Z,35.73
2019-04-27T14:09:45.059Z,22.87
2019-04-27T14:12:18.762Z,26.43
2019-04-27T14:14:51.612Z,22.43
2019-04-27T14:17:22.811Z,29.00
2019-04-27T14:19:54.048Z,28.40
2019-04-27T14:22:25.253Z,31.43
2019-04-27T14:24:58.447Z,28.50
2019-04-27T14:27:31.804Z,27.23
2019-04-27T14:30:05.488Z,32.33
2019-04-27T14:32:38.654Z,32.23
2019-04-27T14:35:10.141Z,43.87
2019-04-27T14:37:41.363Z,41.70
2019-04-27T14:40:12.666Z,30.80
2019-04-27T14:42:44.111Z,33.10
2019-04-27T14:45:15.388Z,27.37
2019-04-27T14:47:48.175Z,29.47
2019-04-27T14:50:19.530Z,23.27
2019-04-27T14:52:50.752Z,35.17
2019-04-27T14:55:22.039Z,29.50
2019-04-27T14:57:53.260Z,44.67
2019-04-27T15:00:24.543Z,25.27
2019-04-27T15:02:55.802Z,21.97
2019-04-27T15:05:28.329Z,27.17
2019-04-27T15:08:01.721Z,26.27
2019-04-27T15:10:35.882Z,28.53
2019-04-27T15:13:07.939Z,26.60
2019-04-27T15:15:39.509Z,37.50
2019-04-27T15:18:11.093Z,34.97
2019-04-27T15:20:46.554Z,37.07
2019-04-27T15:23:19.902Z,54.03
2019-04-27T15:25:51.132Z,43.40
2019-04-27T15:28:33.127Z,38.00
2019-04-27T15:31:06.247Z,40.77
2019-04-27T15:33:54.907Z,32.83
2019-04-27T15:36:33.708Z,38.07
2019-04-27T15:39:11.207Z,36.27
2019-04-27T15:41:48.492Z,40.60
2019-04-27T15:44:21.133Z,28.07
2019-04-27T15:46:52.420Z,27.33
2019-04-27T15:49:23.673Z,25.43
2019-04-27T15:51:56.103Z,26.23
2019-04-27T15:54:31.919Z,28.27
2019-04-27T15:57:01.009Z,25.03
2019-04-27T15:59:39.285Z,31.00
2019-04-27T16:02:11.832Z,34.30
2019-04-27T16:04:40.106Z,29.97
2019-04-27T16:07:12.065Z,24.80
2019-04-27T16:09:43.324Z,29.20
2019-04-27T16:12:14.522Z,32.13
2019-04-27T16:14:46.393Z,24.20
2019-04-27T16:17:19.093Z,21.37
2019-04-27T16:19:50.465Z,25.77
2019-04-27T16:22:22.607Z,28.40
2019-04-27T16:24:55.156Z,25.80
2019-04-27T16:27:31.416Z,25.83
2019-04-27T16:30:04.779Z,21.80
2019-04-27T16:32:32.927Z,21.17
2019-04-27T16:35:05.256Z,29.77
2019-04-27T16:37:38.839Z,30.23
2019-04-27T16:40:10.759Z,30.33
2019-04-27T16:42:45.254Z,25.27
2019-04-27T16:45:15.489Z,24.53
2019-04-27T16:47:48.063Z,24.20
2019-04-27T16:50:25.517Z,21.07
2019-04-27T16:52:56.971Z,23.63
2019-04-27T16:55:28.038Z,33.83
2019-04-27T16:57:59.942Z,25.13
2019-04-27T17:00:31.456Z,35.20
2019-04-27T17:03:06.537Z,34.97
2019-04-27T17:05:37.963Z,50.70
2019-04-27T17:08:13.929Z,50.40
2019-04-27T17:10:42.596Z,44.27
2019-04-27T17:13:14.786Z,50.00
2019-04-27T17:15:53.622Z,47.10
2019-04-27T17:18:25.781Z,45.53
2019-04-27T17:21:00.897Z,42.10
2019-04-27T17:23:31.685Z,39.87
2019-04-27T17:26:09.522Z,43.73
2019-04-27T17:28:41.037Z,40.00
2019-04-27T17:31:19.662Z,68.87
2019-04-27T17:33:49.933Z,52.23
2019-04-27T17:36:21.336Z,33.87
2019-04-27T17:38:52.680Z,29.80
2019-04-27T17:41:24.187Z,31.43
2019-04-27T17:43:55.414Z,27.13
2019-04-27T17:46:28.205Z,25.90
2019-04-27T17:49:00.257Z,28.13
2019-04-27T17:51:35.244Z,28.00
2019-04-27T17:54:08.058Z,26.27
2019-04-27T17:56:48.134Z,25.43
2019-04-27T17:59:16.813Z,27.67
2019-04-27T18:01:45.369Z,27.50
2019-04-27T18:04:18.398Z,33.37
2019-04-27T18:06:49.860Z,39.77
2019-04-27T18:09:21.476Z,57.10
2019-04-27T18:11:54.322Z,37.53
2019-04-27T18:14:26.302Z,44.13
2019-04-27T18:16:58.404Z,35.83
2019-04-27T18:19:31.772Z,49.93
2019-04-27T18:22:05.269Z,76.30
2019-04-27T18:24:38.390Z,70.17
2019-04-27T18:27:18.368Z,53.50
2019-04-27T18:29:50.093Z,38.83
2019-04-27T18:32:23.583Z,40.13
2019-04-27T18:34:54.654Z,55.50
2019-04-27T18:37:26.020Z,42.50
2019-04-27T18:39:58.461Z,45.80
2019-04-27T18:42:31.293Z,41.77
2019-04-27T18:45:06.944Z,35.13
2019-04-27T18:47:40.570Z,33.60
2019-04-27T18:50:17.937Z,31.63
2019-04-27T18:53:00.521Z,29.10
2019-04-27T18:55:31.968Z,28.03
2019-04-27T18:58:03.533Z,30.47
2019-04-27T19:00:34.816Z,29.40
2019-04-27T19:03:06.060Z,31.03
2019-04-27T19:05:40.381Z,33.23
2019-04-27T19:08:10.652Z,28.60
2019-04-27T19:10:42.995Z,23.47
2019-04-27T19:13:15.762Z,22.17
2019-04-27T19:15:47.044Z,26.10
2019-04-27T19:18:18.964Z,36.90
2019-04-27T19:20:50.585Z,40.83
2019-04-27T19:23:21.913Z,29.53
2019-04-27T19:26:10.373Z,34.33
2019-04-27T19:29:01.669Z,31.27
2019-04-27T19:31:34.790Z,31.60
2019-04-27T19:34:06.686Z,29.93
2019-04-27T19:36:38.652Z,29.43
2019-04-27T19:39:13.901Z,28.63
2019-04-27T19:41:57.925Z,28.17
2019-04-27T19:44:21.697Z,28.27
2019-04-27T19:46:53.082Z,26.73
2019-04-27T19:49:24.529Z,25.33
2019-04-27T19:51:56.145Z,26.13
2019-04-27T19:54:29.902Z,27.63
2019-04-27T19:57:00.926Z,26.23
2019-04-27T19:59:34.302Z,24.13
2019-04-27T20:02:08.740Z,24.07
2019-04-27T20:04:41.694Z,24.37
2019-04-27T20:07:13.009Z,20.10
2019-04-27T20:09:55.382Z,20.80
2019-04-27T20:12:27.713Z,24.43
2019-04-27T20:14:59.807Z,25.00
2019-04-27T20:17:31.520Z,23.53
2019-04-27T20:20:04.725Z,20.73
2019-04-27T20:22:36.128Z,22.37
2019-04-27T20:25:08.930Z,21.13
2019-04-27T20:27:46.962Z,22.53
2019-04-27T20:30:14.106Z,21.63
2019-04-27T20:32:47.719Z,22.20
2019-04-27T20:35:19.160Z,23.17
2019-04-27T20:37:51.843Z,19.57
2019-04-27T20:40:23.333Z,23.53
2019-04-27T20:42:54.721Z,24.27
2019-04-27T20:45:26.566Z,21.27
2019-04-27T20:47:57.876Z,23.10
2019-04-27T20:50:30.854Z,19.70
2019-04-27T20:53:04.563Z,21.30
2019-04-27T20:55:36.837Z,19.13
2019-04-27T20:58:08.201Z,20.33
2019-04-27T21:00:41.800Z,19.57
2019-04-27T21:03:17.671Z,19.53
2019-04-27T21:06:07.623Z,18.63
2019-04-27T21:08:41.625Z,17.40
2019-04-27T21:11:13.026Z,16.53
2019-04-27T21:13:44.440Z,18.63
2019-04-27T21:16:16.438Z,16.17
2019-04-27T21:18:47.901Z,15.67
2019-04-27T21:21:19.212Z,15.43
2019-04-27T21:23:52.031Z,16.70
2019-04-27T21:26:23.596Z,16.57
2019-04-27T21:28:55.645Z,17.87
2019-04-27T21:31:27.574Z,18.00
2019-04-27T21:33:59.311Z,17.07
2019-04-27T21:36:31.098Z,18.70
2019-04-27T21:39:04.370Z,16.97
2019-04-27T21:41:37.687Z,17.97
2019-04-27T21:44:09.193Z,19.40
2019-04-27T21:46:41.715Z,18.87
2019-04-27T21:49:13.285Z,18.10
2019-04-27T21:52:02.777Z,21.67
2019-04-27T21:54:36.700Z,21.75
2019-04-27T21:57:08.014Z,22.57
2019-04-27T21:59:39.350Z,23.17
2019-04-27T22:02:14.459Z,19.47
2019-04-27T22:04:45.875Z,20.27
2019-04-27T22:07:18.336Z,19.30
2019-04-27T22:09:51.562Z,18.27
2019-04-27T22:12:23.063Z,17.20
2019-04-27T22:14:54.561Z,16.73
2019-04-27T22:17:25.908Z,18.10
2019-04-27T22:19:58.236Z,17.57
2019-04-27T22:22:31.494Z,21.57
2019-04-27T22:25:06.439Z,21.93
2019-04-27T22:27:37.657Z,20.43
2019-04-27T22:30:10.852Z,21.87
2019-04-27T22:32:42.153Z,24.27
2019-04-27T22:35:13.599Z,21.07
2019-04-27T22:37:44.988Z,23.50
2019-04-27T22:40:33.468Z,22.23
2019-04-27T22:43:09.644Z,30.80
2019-04-27T22:45:43.024Z,23.17
2019-04-27T22:48:14.362Z,25.57
2019-04-27T22:50:45.653Z,25.07
2019-04-27T22:53:17.032Z,22.97
2019-04-27T22:56:06.886Z,25.63
2019-04-27T22:58:40.657Z,22.83
2019-04-27T23:01:18.404Z,25.77
2019-04-27T23:03:57.713Z,23.90
2019-04-27T23:06:29.250Z,22.27
2019-04-27T23:09:01.681Z,25.73
2019-04-27T23:11:35.500Z,22.83
2019-04-27T23:14:07.090Z,27.80
2019-04-27T23:16:52.180Z,23.47
2019-04-27T23:19:23.468Z,24.70
2019-04-27T23:21:54.789Z,21.73
2019-04-27T23:24:26.209Z,23.07
2019-04-27T23:26:57.434Z,19.97
2019-04-27T23:29:30.556Z,20.63
2019-04-27T23:32:03.978Z,21.93
2019-04-27T23:34:35.268Z,24.50
2019-04-27T23:37:06.640Z,20.77
2019-04-27T23:39:37.940Z,23.27
2019-04-27T23:42:09.349Z,22.87
2019-04-27T23:44:40.850Z,20.10
2019-04-27T23:47:12.284Z,21.10
2019-04-27T23:49:43.622Z,19.67
2019-04-27T23:52:16.858Z,17.77
2019-04-27T23:54:48.120Z,16.47
2019-04-27T23:57:19.591Z,17.70
2019-04-27T23:59:51.493Z,18.33
